Terminal Aerodrome Forecast
Issued by NWS

Home | Current Version | Previous Version | Graphics & Text | Print | Product List | Glossary On
Versions: 1 2 3 4 5 6 7 8 9 10 11 12 13 14 15 16
000
FTUS43 KICT 200218 AAA
TAFSLN
TAF AMD
KSLN 200218Z 2002/2024 07013G20KT P6SM -RA SCT025 OVC035
      TEMPO 2002/2004 5SM RA SCT015 OVC025
     FM200400 01013G19KT P6SM -RA OVC015
     FM200700 01013G19KT P6SM OVC009
     FM201500 36014G20KT P6SM BKN015=

USA.gov is the U.S. government's official web portal to all federal, state and local government web resources and services.